Information Last Ob Photographs Calibration Meteogram Network Table Neighbors Monthly Summaries Observation History Wind Roses Custom Wind Roses Data Calendar Satellite Cloud Product Download Terminal Aerodome Forecast

Most Recent Observation

This application displays the last observation received by the IEM from this site. The time stamp is in America/Chicago timezone.

Observation Local Time24 Feb 2024, 10:54 PM
Observation UTC Time2024-02-25T04:54:00Z
Air Temp [F]42
Maximum Air Temperature [F]52
Minimum Air Temperature [F]26
Dew Point [F]28
Wind DirectionS (170 degrees)
Wind Speed [knots]7
Altimeter [inches]29.79
Raw Observation/ProductKDSM 250454Z 17007KT 10SM CLR 06/M02 A2979 RMK AO2 SLP094 T00561022
Cloud Layer 1: CLR ( feet)

This data was provided by a JSON(P) webservice. You can find more JSON services.